Terminal Aerodrome Forecast
Issued by NWS

Home | Current Version | Previous Version | Text Only | Print | Product List | Glossary On
Versions: 1 2 3 4 5 6 7 8 9 10 11 12 13 14 15 16 17
000
FTUS42 KFFC 232320
TAFRYY
TAF
KRYY 232320Z 2400/2424 VRB03KT P6SM VCSH SCT025 BKN050
      TEMPO 2400/2404 5SM TSRA BKN040CB
     FM240600 VRB03KT P6SM OVC006
     FM241100 20006KT 6SM -SHRA OVC006
      TEMPO 2413/2416 VRB15G25KT 4SM TSRA SCT010 BKN030CB
     FM241600 25012G22KT P6SM VCSH BKN040
      AMD NOT SKED 2404/2412=

USA.gov is the U.S. government's official web portal to all federal, state and local government web resources and services.